createdAt,value
2023-10-20T00:00:42.000Z,10.15
2023-10-20T00:03:10.041Z,10.18
2023-10-20T00:05:37.194Z,10.18
2023-10-20T00:08:04.522Z,11.45
2023-10-20T00:10:36.275Z,10.38
2023-10-20T00:13:04.154Z,9.68
2023-10-20T00:15:30.632Z,10.43
2023-10-20T00:17:57.056Z,11.05
2023-10-20T00:20:24.044Z,10.70
2023-10-20T00:22:50.612Z,11.02
2023-10-20T00:25:18.206Z,11.20
2023-10-20T00:27:44.690Z,10.60
2023-10-20T00:30:12.700Z,10.43
2023-10-20T00:32:41.236Z,11.55
2023-10-20T00:35:10.664Z,9.88
2023-10-20T00:37:37.885Z,10.82
2023-10-20T00:40:11.953Z,9.40
2023-10-20T00:42:39.202Z,12.60
2023-10-20T00:45:07.963Z,11.70
2023-10-20T00:47:37.314Z,11.10
2023-10-20T00:50:05.720Z,10.45
2023-10-20T00:52:33.920Z,12.45
2023-10-20T00:55:00.876Z,10.75
2023-10-20T00:57:27.939Z,13.32
2023-10-20T00:59:54.595Z,11.52
2023-10-20T01:02:21.557Z,11.70
2023-10-20T01:04:48.295Z,11.35
2023-10-20T01:07:16.005Z,11.57
2023-10-20T01:09:45.573Z,10.57
2023-10-20T01:12:12.117Z,12.00
2023-10-20T01:14:38.690Z,11.82
2023-10-20T01:17:05.683Z,11.02
2023-10-20T01:19:34.053Z,12.63
2023-10-20T01:22:00.937Z,10.93
2023-10-20T01:24:27.931Z,11.32
2023-10-20T01:26:54.400Z,11.95
2023-10-20T01:29:21.182Z,12.43
2023-10-20T01:31:47.812Z,11.82
2023-10-20T01:34:14.393Z,11.27
2023-10-20T01:36:40.913Z,12.13
2023-10-20T01:39:09.206Z,10.60
2023-10-20T01:41:35.716Z,11.70
2023-10-20T01:44:02.270Z,12.60
2023-10-20T01:46:29.798Z,11.68
2023-10-20T01:48:56.335Z,10.82
2023-10-20T01:51:22.752Z,11.80
2023-10-20T01:53:49.171Z,11.80
2023-10-20T01:56:15.656Z,10.07
2023-10-20T01:58:42.225Z,12.05
2023-10-20T02:01:11.759Z,12.18
2023-10-20T02:03:38.551Z,13.05
2023-10-20T02:06:06.060Z,12.98
2023-10-20T02:08:33.178Z,12.88
2023-10-20T02:10:59.680Z,10.43
2023-10-20T02:13:26.063Z,11.80
2023-10-20T02:15:52.529Z,13.50
2023-10-20T02:18:19.099Z,11.93
2023-10-20T02:20:45.669Z,12.48
2023-10-20T02:23:12.852Z,12.02
2023-10-20T02:25:39.476Z,11.05
2023-10-20T02:28:06.577Z,11.93
2023-10-20T02:30:33.759Z,12.63
2023-10-20T02:33:03.267Z,14.00
2023-10-20T02:35:29.940Z,11.70
2023-10-20T02:37:56.508Z,13.38
2023-10-20T02:40:23.169Z,11.88
2023-10-20T02:42:49.624Z,12.13
2023-10-20T02:45:16.200Z,12.32
2023-10-20T02:47:42.761Z,14.65
2023-10-20T02:50:09.897Z,11.38
2023-10-20T02:52:36.900Z,12.68
2023-10-20T02:55:03.507Z,11.00
2023-10-20T02:57:30.786Z,12.98
2023-10-20T02:59:57.268Z,10.93
2023-10-20T03:02:24.201Z,11.30
2023-10-20T03:04:56.947Z,11.13
2023-10-20T03:07:28.225Z,10.85
2023-10-20T03:09:55.394Z,11.88
2023-10-20T03:12:21.869Z,11.70
2023-10-20T03:14:49.191Z,12.43
2023-10-20T03:17:16.014Z,11.75
2023-10-20T03:19:44.575Z,10.68
2023-10-20T03:22:10.986Z,11.90
2023-10-20T03:24:37.401Z,12.07
2023-10-20T03:27:03.988Z,11.70
2023-10-20T03:29:30.980Z,10.40
2023-10-20T03:31:57.464Z,10.88
2023-10-20T03:34:23.954Z,11.45
2023-10-20T03:36:51.649Z,10.60
2023-10-20T03:39:24.756Z,11.68
2023-10-20T03:41:51.631Z,11.00
2023-10-20T03:44:18.318Z,10.75
2023-10-20T03:46:49.575Z,12.52
2023-10-20T03:49:20.059Z,10.48
2023-10-20T03:51:51.011Z,10.52
2023-10-20T03:54:20.581Z,11.65
2023-10-20T03:56:47.085Z,11.82
2023-10-20T03:59:17.553Z,10.75
2023-10-20T04:01:44.561Z,13.18
2023-10-20T04:04:12.937Z,10.93
2023-10-20T04:06:45.307Z,10.85
2023-10-20T04:09:12.878Z,11.20
2023-10-20T04:11:39.948Z,11.68
2023-10-20T04:14:07.702Z,11.40
2023-10-20T04:16:41.343Z,11.18
2023-10-20T04:19:13.679Z,10.68
2023-10-20T04:21:41.849Z,11.77
2023-10-20T04:24:08.944Z,10.05
2023-10-20T04:26:36.583Z,10.27
2023-10-20T04:29:05.697Z,11.05
2023-10-20T04:31:50.957Z,11.90
2023-10-20T04:34:35.808Z,11.90
2023-10-20T04:40:05.644Z,11.52
2023-10-20T04:45:19.859Z,11.18
2023-10-20T04:47:52.976Z,10.23
2023-10-20T04:50:39.548Z,11.85
2023-10-20T04:53:23.751Z,12.30
2023-10-20T04:56:22.417Z,12.38
2023-10-20T04:59:05.649Z,11.35
2023-10-20T05:01:42.930Z,10.43
2023-10-20T05:04:28.294Z,11.18
2023-10-20T05:07:06.977Z,9.77
2023-10-20T05:09:37.013Z,11.13
2023-10-20T05:12:03.626Z,10.23
2023-10-20T05:14:30.120Z,10.35
2023-10-20T05:16:56.687Z,11.68
2023-10-20T05:19:23.124Z,9.15
2023-10-20T05:21:50.019Z,10.40
2023-10-20T05:24:16.497Z,10.95
2023-10-20T05:26:46.243Z,10.60
2023-10-20T05:29:12.856Z,10.85
2023-10-20T05:31:39.854Z,10.82
2023-10-20T05:34:06.467Z,11.38
2023-10-20T05:36:33.220Z,10.65
2023-10-20T05:38:59.704Z,11.20
2023-10-20T05:41:27.729Z,11.15
2023-10-20T05:43:55.145Z,9.65
2023-10-20T05:46:22.776Z,11.90
2023-10-20T05:48:49.504Z,10.25
2023-10-20T05:51:16.124Z,10.35
2023-10-20T05:53:43.060Z,10.40
2023-10-20T05:56:11.554Z,10.82
2023-10-20T05:58:39.355Z,10.75
2023-10-20T06:01:12.327Z,10.30
2023-10-20T06:03:42.312Z,10.90
2023-10-20T06:06:09.030Z,11.32
2023-10-20T06:08:35.714Z,10.80
2023-10-20T06:11:04.132Z,11.35
2023-10-20T06:13:33.514Z,11.18
2023-10-20T06:16:10.706Z,11.00
2023-10-20T06:18:42.510Z,10.45
2023-10-20T06:21:18.103Z,10.80
2023-10-20T06:23:45.070Z,12.27
2023-10-20T06:26:11.947Z,12.18
2023-10-20T06:28:38.565Z,10.10
2023-10-20T06:31:24.239Z,11.13
2023-10-20T06:33:58.810Z,10.27
2023-10-20T06:38:54.210Z,11.93
2023-10-20T06:41:20.700Z,11.05
2023-10-20T06:43:48.213Z,11.93
2023-10-20T06:46:15.298Z,10.45
2023-10-20T06:48:41.748Z,10.40
2023-10-20T06:51:08.223Z,11.32
2023-10-20T06:53:35.459Z,11.23
2023-10-20T06:56:15.195Z,11.35
2023-10-20T06:58:43.155Z,9.82
2023-10-20T07:01:09.735Z,10.15
2023-10-20T07:03:36.504Z,10.35
2023-10-20T07:06:08.391Z,9.30
2023-10-20T07:08:35.244Z,9.45
2023-10-20T07:11:05.270Z,9.90
2023-10-20T07:13:33.153Z,9.45
2023-10-20T07:16:00.117Z,8.75
2023-10-20T07:18:27.535Z,9.38
2023-10-20T07:20:57.501Z,9.77
2023-10-20T07:23:24.874Z,9.82
2023-10-20T07:25:51.432Z,8.35
2023-10-20T07:28:17.851Z,8.85
2023-10-20T07:30:44.287Z,8.07
2023-10-20T07:33:10.876Z,8.60
2023-10-20T07:35:40.480Z,8.98
2023-10-20T07:38:09.213Z,9.02
2023-10-20T07:40:38.956Z,7.78
2023-10-20T07:43:08.744Z,9.55
2023-10-20T07:45:41.590Z,8.68
2023-10-20T07:48:08.912Z,8.38
2023-10-20T07:50:35.440Z,8.52
2023-10-20T07:53:02.292Z,8.27
2023-10-20T07:55:29.077Z,8.18
2023-10-20T07:57:56.483Z,7.22
2023-10-20T08:00:23.068Z,8.02
2023-10-20T08:02:53.984Z,7.55
2023-10-20T08:05:21.793Z,6.50
2023-10-20T08:07:49.925Z,6.28
2023-10-20T08:10:16.463Z,6.75
2023-10-20T08:12:42.917Z,6.32
2023-10-20T08:15:09.702Z,7.00
2023-10-20T08:17:37.808Z,7.65
2023-10-20T08:20:08.987Z,6.03
2023-10-20T08:22:35.400Z,7.97
2023-10-20T08:25:01.914Z,6.70
2023-10-20T08:27:28.599Z,7.20
2023-10-20T08:29:57.943Z,7.40
2023-10-20T08:32:25.784Z,7.38
2023-10-20T08:34:52.272Z,7.15
2023-10-20T08:37:18.825Z,6.88
2023-10-20T08:39:45.700Z,6.32
2023-10-20T08:42:20.311Z,5.82
2023-10-20T08:44:47.431Z,6.15
2023-10-20T08:47:14.442Z,6.03
2023-10-20T08:49:41.079Z,5.43
2023-10-20T08:52:11.192Z,5.88
2023-10-20T08:54:38.677Z,4.90
2023-10-20T08:57:06.147Z,4.47
2023-10-20T08:59:33.912Z,5.10
2023-10-20T09:02:00.789Z,5.28
2023-10-20T09:04:28.915Z,4.60
2023-10-20T09:06:56.675Z,4.88
2023-10-20T09:09:23.250Z,4.20
2023-10-20T09:11:50.123Z,3.50
2023-10-20T09:14:16.817Z,3.83
2023-10-20T09:16:43.492Z,3.28
2023-10-20T09:19:12.107Z,3.90
2023-10-20T09:21:43.037Z,3.15
2023-10-20T09:24:12.982Z,2.88
2023-10-20T09:26:40.469Z,2.78
2023-10-20T09:29:10.470Z,2.55
2023-10-20T09:31:38.395Z,3.20
2023-10-20T09:34:08.832Z,3.03
2023-10-20T09:36:37.199Z,2.55
2023-10-20T09:39:09.150Z,2.38
2023-10-20T09:41:43.880Z,2.42
2023-10-20T09:44:15.973Z,2.55
2023-10-20T09:47:13.921Z,2.75
2023-10-20T09:49:41.977Z,3.00
2023-10-20T09:52:09.199Z,2.75
2023-10-20T09:54:37.979Z,2.65
2023-10-20T09:57:07.214Z,2.15
2023-10-20T09:59:34.187Z,2.63
2023-10-20T10:02:00.957Z,2.65
2023-10-20T10:04:41.259Z,1.70
2023-10-20T10:07:08.785Z,1.75
2023-10-20T10:09:38.077Z,1.65
2023-10-20T10:12:11.928Z,1.75
2023-10-20T10:14:38.933Z,1.17
2023-10-20T10:17:10.733Z,1.50
2023-10-20T10:19:50.024Z,1.45
2023-10-20T10:22:17.042Z,1.40
2023-10-20T10:24:52.672Z,1.30
2023-10-20T10:27:20.763Z,1.63
2023-10-20T10:29:50.586Z,1.10
2023-10-20T10:32:20.451Z,1.00
2023-10-20T10:34:49.955Z,1.08
2023-10-20T10:37:30.537Z,1.30
2023-10-20T10:40:12.326Z,1.10
2023-10-20T10:42:46.384Z,1.00
2023-10-20T10:45:35.200Z,1.00
2023-10-20T10:48:07.029Z,1.08
2023-10-20T10:50:34.280Z,0.90
2023-10-20T10:53:02.017Z,1.10
2023-10-20T10:55:28.836Z,1.38
2023-10-20T10:57:55.360Z,1.10
2023-10-20T11:00:23.010Z,1.00
2023-10-20T11:02:50.108Z,0.88
2023-10-20T11:05:18.259Z,0.90
2023-10-20T11:08:05.245Z,1.25
2023-10-20T11:10:35.785Z,0.77
2023-10-20T11:13:11.521Z,1.05
2023-10-20T11:15:38.752Z,1.08
2023-10-20T11:18:07.466Z,1.00
2023-10-20T11:20:42.530Z,1.38
2023-10-20T11:23:10.228Z,0.90
2023-10-20T11:25:37.978Z,0.82
2023-10-20T11:28:05.193Z,0.93
2023-10-20T11:30:33.726Z,1.00
2023-10-20T11:33:00.504Z,1.00
2023-10-20T11:35:27.933Z,0.80
2023-10-20T11:37:55.681Z,0.80
2023-10-20T11:40:22.865Z,1.02
2023-10-20T11:42:49.608Z,0.88
2023-10-20T11:45:16.798Z,1.27
2023-10-20T11:47:43.923Z,1.00
2023-10-20T11:50:19.769Z,0.70
2023-10-20T11:52:46.557Z,0.95
2023-10-20T11:55:13.048Z,0.70
2023-10-20T11:57:40.202Z,0.70
2023-10-20T12:00:11.408Z,0.90
2023-10-20T12:02:39.696Z,0.60
2023-10-20T12:05:07.397Z,0.90
2023-10-20T12:07:34.030Z,0.80
2023-10-20T12:10:00.510Z,0.45
2023-10-20T12:12:27.058Z,0.73
2023-10-20T12:14:53.535Z,0.70
2023-10-20T12:17:20.599Z,0.60
2023-10-20T12:19:50.045Z,0.90
2023-10-20T12:22:16.847Z,0.70
2023-10-20T12:24:43.361Z,0.55
2023-10-20T12:27:13.087Z,0.75
2023-10-20T12:29:41.108Z,0.52
2023-10-20T12:32:08.712Z,0.50
2023-10-20T12:34:35.786Z,0.80
2023-10-20T12:37:02.605Z,0.50
2023-10-20T12:39:29.395Z,0.70
2023-10-20T12:41:59.206Z,0.70
2023-10-20T12:44:27.017Z,0.60
2023-10-20T12:46:53.458Z,0.60
2023-10-20T12:49:20.084Z,0.68
2023-10-20T12:51:46.635Z,0.40
2023-10-20T12:54:13.056Z,0.50
2023-10-20T12:56:39.531Z,0.50
2023-10-20T12:59:06.026Z,0.50
2023-10-20T13:01:32.605Z,0.43
2023-10-20T13:04:00.471Z,0.60
2023-10-20T13:06:27.228Z,0.80
2023-10-20T13:08:53.690Z,0.45
2023-10-20T13:11:20.797Z,0.60
2023-10-20T13:13:47.354Z,0.40
2023-10-20T13:16:13.801Z,0.30
2023-10-20T13:18:40.301Z,0.90
2023-10-20T13:21:06.940Z,0.50
2023-10-20T13:23:33.908Z,0.30
2023-10-20T13:26:01.601Z,0.32
2023-10-20T13:28:28.105Z,0.50
2023-10-20T13:31:08.759Z,0.40
2023-10-20T13:33:36.299Z,0.38
2023-10-20T13:36:09.213Z,0.40
2023-10-20T13:38:39.239Z,0.50
2023-10-20T13:41:06.962Z,0.30
2023-10-20T13:43:33.568Z,0.40
2023-10-20T13:46:00.138Z,0.43
2023-10-20T13:48:27.276Z,0.40
2023-10-20T13:50:54.080Z,0.40
2023-10-20T13:53:20.824Z,0.47
2023-10-20T13:55:47.834Z,0.40
2023-10-20T13:58:15.306Z,0.40
2023-10-20T14:00:41.906Z,0.30
2023-10-20T14:03:08.702Z,0.47
2023-10-20T14:05:35.953Z,0.38
2023-10-20T14:08:03.088Z,0.40
2023-10-20T14:10:29.824Z,0.52
2023-10-20T14:12:58.093Z,0.43
2023-10-20T14:15:24.888Z,0.40
2023-10-20T14:17:52.478Z,0.52
2023-10-20T14:20:19.438Z,0.50
2023-10-20T14:22:45.957Z,0.57
2023-10-20T14:25:12.548Z,0.40
2023-10-20T14:27:40.650Z,0.43
2023-10-20T14:30:08.232Z,0.50
2023-10-20T14:32:35.281Z,0.88
2023-10-20T14:35:02.298Z,0.55
2023-10-20T14:37:28.749Z,0.50
2023-10-20T14:39:57.539Z,0.60
2023-10-20T14:42:24.279Z,0.70
2023-10-20T14:44:51.635Z,0.40
2023-10-20T14:47:18.566Z,0.32
2023-10-20T14:49:45.077Z,0.45
2023-10-20T14:52:13.366Z,0.38
2023-10-20T14:54:40.425Z,0.50
2023-10-20T14:57:07.539Z,0.30
2023-10-20T14:59:34.309Z,0.30
2023-10-20T15:02:00.957Z,0.30
2023-10-20T15:04:30.865Z,0.40
2023-10-20T15:06:58.220Z,0.50
2023-10-20T15:09:24.916Z,0.38
2023-10-20T15:11:52.324Z,0.63
2023-10-20T15:14:19.041Z,0.60
2023-10-20T15:16:45.589Z,0.55
2023-10-20T15:19:12.104Z,0.60
2023-10-20T15:21:38.622Z,0.47
2023-10-20T15:24:05.429Z,0.55
2023-10-20T15:26:31.970Z,0.63
2023-10-20T15:28:58.891Z,0.70
2023-10-20T15:31:25.345Z,1.05
2023-10-20T15:33:51.970Z,0.82
2023-10-20T15:36:18.592Z,0.63
2023-10-20T15:38:46.321Z,0.70
2023-10-20T15:41:19.038Z,0.75
2023-10-20T15:43:45.935Z,0.50
2023-10-20T15:46:13.913Z,0.50
2023-10-20T15:48:40.746Z,0.63
2023-10-20T15:51:08.979Z,0.43
2023-10-20T15:53:35.784Z,0.32
2023-10-20T15:56:02.229Z,0.50
2023-10-20T15:58:28.801Z,0.60
2023-10-20T16:01:05.606Z,0.55
2023-10-20T16:03:32.712Z,0.57
2023-10-20T16:05:59.383Z,0.50
2023-10-20T16:08:28.719Z,0.55
2023-10-20T16:10:55.448Z,0.65
2023-10-20T16:13:21.861Z,0.50
2023-10-20T16:15:48.356Z,0.70
2023-10-20T16:18:14.894Z,0.80
2023-10-20T16:20:41.435Z,0.90
2023-10-20T16:23:08.769Z,0.82
2023-10-20T16:25:36.586Z,0.60
2023-10-20T16:28:03.558Z,0.57
2023-10-20T16:30:30.517Z,0.50
2023-10-20T16:32:57.188Z,0.80
2023-10-20T16:35:23.752Z,1.23
2023-10-20T16:37:52.243Z,1.35
2023-10-20T16:40:19.282Z,1.30
2023-10-20T16:42:45.766Z,1.00
2023-10-20T16:45:12.262Z,1.63
2023-10-20T16:47:39.511Z,1.13
2023-10-20T16:50:07.137Z,1.10
2023-10-20T16:52:35.579Z,1.13
2023-10-20T16:55:02.038Z,0.82
2023-10-20T16:57:28.449Z,0.80
2023-10-20T16:59:55.183Z,0.98
2023-10-20T17:02:21.721Z,1.00
2023-10-20T17:04:48.222Z,1.40
2023-10-20T17:07:14.704Z,1.10
2023-10-20T17:09:41.140Z,1.40
2023-10-20T17:12:08.415Z,1.25
2023-10-20T17:14:34.930Z,1.30
2023-10-20T17:17:01.348Z,1.50
2023-10-20T17:19:27.815Z,1.40
2023-10-20T17:21:54.274Z,1.65
2023-10-20T17:24:20.679Z,3.05
2023-10-20T17:26:47.308Z,2.00
2023-10-20T17:29:13.810Z,1.58
2023-10-20T17:31:40.288Z,1.45
2023-10-20T17:34:06.765Z,1.27
2023-10-20T17:36:33.270Z,1.25
2023-10-20T17:39:00.959Z,1.15
2023-10-20T17:41:27.844Z,1.38
2023-10-20T17:43:54.357Z,1.15
2023-10-20T17:46:20.882Z,2.15
2023-10-20T17:48:48.241Z,1.20
2023-10-20T17:51:14.804Z,1.20
2023-10-20T17:53:41.823Z,1.65
2023-10-20T17:56:08.430Z,1.60
2023-10-20T17:58:34.955Z,1.05
2023-10-20T18:01:09.184Z,1.20
2023-10-20T18:06:21.227Z,1.30
2023-10-20T18:08:50.718Z,1.20
2023-10-20T18:11:18.765Z,0.85
2023-10-20T18:13:47.305Z,1.70
2023-10-20T18:16:17.765Z,1.30
2023-10-20T18:18:46.746Z,1.50
2023-10-20T18:21:13.459Z,1.75
2023-10-20T18:23:40.557Z,1.98
2023-10-20T18:26:08.326Z,1.70
2023-10-20T18:28:35.214Z,1.30
2023-10-20T18:31:10.871Z,1.27
2023-10-20T18:33:37.415Z,1.92
2023-10-20T18:36:04.336Z,2.40
2023-10-20T18:38:30.793Z,2.28
2023-10-20T18:40:57.282Z,3.20
2023-10-20T18:43:23.728Z,2.75
2023-10-20T18:46:00.096Z,4.07
2023-10-20T18:48:27.868Z,3.40
2023-10-20T18:51:03.875Z,2.55
2023-10-20T18:53:30.563Z,2.85
2023-10-20T18:55:57.979Z,3.90
2023-10-20T18:58:24.524Z,2.90
2023-10-20T19:00:53.162Z,3.05
2023-10-20T19:03:20.493Z,4.07
2023-10-20T19:05:49.519Z,3.55
2023-10-20T19:08:16.830Z,4.18
2023-10-20T19:10:43.306Z,4.55
2023-10-20T19:13:09.772Z,5.57
2023-10-20T19:15:36.224Z,5.18
2023-10-20T19:18:04.106Z,4.72
2023-10-20T19:20:30.657Z,6.00
2023-10-20T19:22:57.118Z,6.82
2023-10-20T19:25:23.939Z,7.50
2023-10-20T19:27:50.345Z,9.40
2023-10-20T19:30:17.262Z,9.70
2023-10-20T19:32:43.781Z,8.77
2023-10-20T19:35:10.406Z,7.20
2023-10-20T19:37:38.242Z,9.13
2023-10-20T19:40:06.960Z,8.35
2023-10-20T19:42:33.596Z,7.63
2023-10-20T19:45:02.173Z,8.88
2023-10-20T19:47:28.802Z,8.93
2023-10-20T19:49:55.292Z,10.05
2023-10-20T19:52:21.773Z,8.40
2023-10-20T19:54:48.251Z,8.93
2023-10-20T19:57:14.689Z,9.80
2023-10-20T19:59:41.178Z,10.73
2023-10-20T20:02:08.884Z,9.48
2023-10-20T20:04:35.622Z,8.60
2023-10-20T20:07:02.214Z,8.50
2023-10-20T20:09:29.527Z,9.38
2023-10-20T20:11:56.981Z,8.95
2023-10-20T20:14:23.630Z,9.25
2023-10-20T20:16:50.213Z,10.27
2023-10-20T20:19:16.876Z,11.02
2023-10-20T20:21:43.391Z,9.23
2023-10-20T20:24:09.942Z,8.40
2023-10-20T20:26:36.447Z,7.20
2023-10-20T20:29:05.351Z,8.57
2023-10-20T20:31:32.155Z,6.68
2023-10-20T20:33:58.629Z,6.55
2023-10-20T20:36:25.090Z,6.13
2023-10-20T20:38:51.602Z,6.50
2023-10-20T20:41:18.186Z,5.35
2023-10-20T20:43:44.643Z,6.80
2023-10-20T20:46:11.227Z,4.88
2023-10-20T20:48:37.973Z,5.57
2023-10-20T20:51:09.550Z,5.32
2023-10-20T20:53:36.299Z,3.88
2023-10-20T20:56:02.761Z,5.18
2023-10-20T20:58:29.333Z,5.47
2023-10-20T21:00:56.288Z,4.20
2023-10-20T21:03:23.102Z,4.95
2023-10-20T21:06:01.264Z,4.53
2023-10-20T21:08:28.227Z,4.38
2023-10-20T21:10:54.762Z,3.97
2023-10-20T21:13:21.215Z,8.95
2023-10-20T21:15:47.747Z,4.90
2023-10-20T21:18:14.601Z,4.18
2023-10-20T21:20:42.537Z,2.90
2023-10-20T21:23:09.120Z,3.22
2023-10-20T21:25:37.598Z,3.58
2023-10-20T21:28:04.920Z,3.97
2023-10-20T21:30:32.035Z,3.42
2023-10-20T21:32:58.607Z,4.10
2023-10-20T21:35:25.114Z,2.85
2023-10-20T21:37:51.602Z,3.50
2023-10-20T21:40:18.069Z,4.45
2023-10-20T21:42:44.702Z,3.30
2023-10-20T21:45:11.369Z,4.10
2023-10-20T21:47:38.550Z,4.10
2023-10-20T21:50:05.677Z,3.83
2023-10-20T21:52:32.502Z,4.45
2023-10-20T21:54:59.196Z,4.85
2023-10-20T21:57:25.718Z,5.93
2023-10-20T21:59:52.256Z,6.32
2023-10-20T22:02:20.211Z,6.30
2023-10-20T22:04:46.713Z,6.10
2023-10-20T22:07:13.184Z,5.85
2023-10-20T22:09:52.960Z,6.72
2023-10-20T22:12:19.917Z,7.97
2023-10-20T22:14:46.434Z,7.95
2023-10-20T22:17:12.883Z,7.47
2023-10-20T22:19:39.307Z,7.60
2023-10-20T22:22:05.745Z,6.82
2023-10-20T22:24:32.230Z,7.35
2023-10-20T22:26:58.843Z,7.93
2023-10-20T22:29:25.410Z,7.35
2023-10-20T22:31:52.148Z,7.95
2023-10-20T22:34:18.646Z,7.32
2023-10-20T22:36:45.123Z,6.80
2023-10-20T22:39:11.598Z,6.53
2023-10-20T22:41:38.174Z,7.03
2023-10-20T22:44:04.863Z,6.65
2023-10-20T22:46:31.391Z,7.30
2023-10-20T22:48:57.883Z,6.78
2023-10-20T22:51:24.355Z,6.38
2023-10-20T22:53:50.819Z,7.35
2023-10-20T22:56:17.279Z,6.43
2023-10-20T22:58:43.696Z,6.15
2023-10-20T23:01:10.186Z,5.47
2023-10-20T23:03:37.199Z,6.72
2023-10-20T23:06:03.888Z,5.90
2023-10-20T23:08:30.513Z,6.18
2023-10-20T23:10:57.103Z,5.97
2023-10-20T23:13:23.716Z,7.15
2023-10-20T23:15:50.156Z,6.07
2023-10-20T23:18:16.852Z,5.47
2023-10-20T23:20:43.585Z,6.68
2023-10-20T23:23:10.205Z,5.30
2023-10-20T23:25:36.662Z,6.07
2023-10-20T23:28:03.919Z,6.40
2023-10-20T23:30:30.351Z,4.55
2023-10-20T23:32:56.909Z,5.93
2023-10-20T23:35:25.163Z,5.40
2023-10-20T23:37:51.669Z,5.90
2023-10-20T23:40:18.535Z,6.35
2023-10-20T23:42:44.997Z,6.13
2023-10-20T23:45:11.568Z,5.03
2023-10-20T23:47:38.310Z,4.97
2023-10-20T23:50:06.579Z,6.25
2023-10-20T23:52:33.515Z,5.85
2023-10-20T23:54:59.977Z,5.65
2023-10-20T23:57:26.482Z,6.60
2023-10-20T23:59:53.191Z,6.32
